LVL24L LEBL-LEMD
Flight info
| Callsign | LVL24L |
|---|---|
| Flight time | 0h 54m |
| Altitude | 31000 |
| Route | SENIA Z596 NEXAS N975 ADUXO |
| Aircraft | A332/H-SDE3GHIJ2J3J5M1RVWXY/LB2D1 |
Departure
| Time | 2026-05-05 21:32 |
|---|---|
| Airport | Josep Tarradellas Barcelona-El Prat Airport (LEBL) |
Arrival
| Time | 2026-05-05 22:27 |
|---|---|
| Airport | Adolfo Suárez Madrid–Barajas Airport (LEMD) |
| Time | Latitude | Longitude | Altitude | Speed | Heading |
|---|---|---|---|---|---|
| 2026-05-05 21:13 | 41.29107 | 2.08270 | 27 ft | 0 kts | 332° |
| 2026-05-05 21:21 | 41.29099 | 2.08276 | 25 ft | 2 kts | 331° |
| 2026-05-05 21:22 | 41.29088 | 2.08284 | 27 ft | 2 kts | 331° |
| 2026-05-05 21:22 | 41.29076 | 2.08293 | 27 ft | 2 kts | 331° |
| 2026-05-05 21:22 | 41.29064 | 2.08302 | 28 ft | 2 kts | 349° |
| 2026-05-05 21:22 | 41.29051 | 2.08305 | 27 ft | 2 kts | 18° |
| 2026-05-05 21:23 | 41.29039 | 2.08298 | 27 ft | 2 kts | 40° |
| 2026-05-05 21:23 | 41.29029 | 2.08287 | 24 ft | 2 kts | 40° |
| 2026-05-05 21:23 | 41.29019 | 2.08275 | 27 ft | 1 kts | 61° |
| 2026-05-05 21:25 | 41.29019 | 2.08277 | 27 ft | 1 kts | 61° |
| 2026-05-05 21:26 | 41.29021 | 2.08306 | 26 ft | 6 kts | 98° |
| 2026-05-05 21:26 | 41.28971 | 2.08335 | 25 ft | 12 kts | 181° |
| 2026-05-05 21:26 | 41.28879 | 2.08300 | 21 ft | 15 kts | 197° |
| 2026-05-05 21:26 | 41.28768 | 2.08252 | 21 ft | 18 kts | 200° |
| 2026-05-05 21:27 | 41.28716 | 2.08253 | 21 ft | 3 kts | 134° |
| 2026-05-05 21:27 | 41.28718 | 2.08311 | 21 ft | 12 kts | 67° |
| 2026-05-05 21:27 | 41.28760 | 2.08431 | 23 ft | 15 kts | 65° |
| 2026-05-05 21:27 | 41.28804 | 2.08559 | 23 ft | 17 kts | 65° |
| 2026-05-05 21:28 | 41.28854 | 2.08705 | 23 ft | 18 kts | 65° |
| 2026-05-05 21:28 | 41.28910 | 2.08868 | 21 ft | 20 kts | 65° |
| 2026-05-05 21:28 | 41.28972 | 2.09046 | 23 ft | 22 kts | 65° |
| 2026-05-05 21:28 | 41.29040 | 2.09237 | 23 ft | 23 kts | 64° |
| 2026-05-05 21:29 | 41.29108 | 2.09440 | 23 ft | 25 kts | 66° |
| 2026-05-05 21:29 | 41.29177 | 2.09647 | 24 ft | 24 kts | 66° |
| 2026-05-05 21:29 | 41.29240 | 2.09831 | 22 ft | 20 kts | 65° |
| 2026-05-05 21:29 | 41.29303 | 2.09981 | 23 ft | 18 kts | 65° |
| 2026-05-05 21:30 | 41.29355 | 2.10138 | 22 ft | 20 kts | 66° |
| 2026-05-05 21:30 | 41.29339 | 2.10261 | 18 ft | 0 kts | 153° |
| 2026-05-05 21:30 | 41.29322 | 2.10273 | 17 ft | 5 kts | 153° |
| 2026-05-05 21:30 | 41.29294 | 2.10292 | 17 ft | 8 kts | 153° |
| 2026-05-05 21:31 | 41.29238 | 2.10316 | 18 ft | 9 kts | 183° |
| 2026-05-05 21:31 | 41.29191 | 2.10241 | 20 ft | 16 kts | 247° |
| 2026-05-05 21:31 | 41.29068 | 2.09878 | 26 ft | 78 kts | 245° |
| 2026-05-05 21:31 | 41.28752 | 2.08950 | 26 ft | 139 kts | 246° |
| 2026-05-05 21:32 | 41.28275 | 2.07654 | 404 ft | 162 kts | 245° |
| 2026-05-05 21:32 | 41.27697 | 2.06376 | 1263 ft | 160 kts | 232° |
| 2026-05-05 21:32 | 41.26664 | 2.05868 | 2023 ft | 177 kts | 178° |
| 2026-05-05 21:32 | 41.25343 | 2.06263 | 2226 ft | 210 kts | 176° |
| 2026-05-05 21:33 | 41.23819 | 2.06355 | 2675 ft | 229 kts | 184° |
| 2026-05-05 21:33 | 41.22204 | 2.06248 | 3508 ft | 231 kts | 188° |
| 2026-05-05 21:33 | 41.20629 | 2.06064 | 4694 ft | 224 kts | 189° |
| 2026-05-05 21:33 | 41.19105 | 2.05883 | 5694 ft | 223 kts | 188° |
| 2026-05-05 21:34 | 41.17569 | 2.05569 | 6624 ft | 223 kts | 202° |
| 2026-05-05 21:34 | 41.16115 | 2.04743 | 7407 ft | 232 kts | 210° |
| 2026-05-05 21:34 | 41.14663 | 2.03744 | 8320 ft | 237 kts | 212° |
| 2026-05-05 21:34 | 41.13197 | 2.02717 | 9320 ft | 239 kts | 212° |
| 2026-05-05 21:35 | 41.11717 | 2.01689 | 10310 ft | 241 kts | 212° |
| 2026-05-05 21:35 | 41.10218 | 2.00656 | 11217 ft | 244 kts | 212° |
| 2026-05-05 21:35 | 41.08712 | 1.99587 | 12112 ft | 246 kts | 216° |
| 2026-05-05 21:35 | 41.07424 | 1.98124 | 13036 ft | 244 kts | 234° |
| 2026-05-05 21:36 | 41.06604 | 1.96088 | 13591 ft | 261 kts | 250° |
| 2026-05-05 21:36 | 41.06065 | 1.93678 | 13941 ft | 284 kts | 255° |
| 2026-05-05 21:36 | 41.05560 | 1.91037 | 14270 ft | 306 kts | 256° |
| 2026-05-05 21:36 | 41.05272 | 1.88167 | 14677 ft | 323 kts | 266° |
| 2026-05-05 21:37 | 41.05251 | 1.85145 | 14890 ft | 330 kts | 269° |
| 2026-05-05 21:37 | 41.05290 | 1.82093 | 15107 ft | 333 kts | 269° |
| 2026-05-05 21:37 | 41.05331 | 1.79051 | 15845 ft | 334 kts | 269° |
| 2026-05-05 21:37 | 41.05367 | 1.75980 | 16760 ft | 333 kts | 268° |
| 2026-05-05 21:38 | 41.05396 | 1.72908 | 17640 ft | 334 kts | 268° |
| 2026-05-05 21:38 | 41.05421 | 1.69832 | 18402 ft | 335 kts | 267° |
| 2026-05-05 21:38 | 41.05444 | 1.66741 | 19109 ft | 336 kts | 267° |
| 2026-05-05 21:38 | 41.05465 | 1.63652 | 19850 ft | 335 kts | 267° |
| 2026-05-05 21:39 | 41.05485 | 1.60566 | 20586 ft | 335 kts | 267° |
| 2026-05-05 21:39 | 41.05503 | 1.57482 | 21307 ft | 335 kts | 267° |
| 2026-05-05 21:39 | 41.05487 | 1.54398 | 22000 ft | 334 kts | 264° |
| 2026-05-05 21:39 | 41.05204 | 1.51350 | 22692 ft | 333 kts | 257° |
| 2026-05-05 21:40 | 41.04612 | 1.48370 | 23351 ft | 334 kts | 253° |
| 2026-05-05 21:40 | 41.03927 | 1.45421 | 23909 ft | 336 kts | 252° |
| 2026-05-05 21:40 | 41.03223 | 1.42456 | 24355 ft | 339 kts | 252° |
| 2026-05-05 21:40 | 41.02511 | 1.39459 | 24805 ft | 343 kts | 252° |
| 2026-05-05 21:41 | 41.01796 | 1.36434 | 25246 ft | 346 kts | 252° |
| 2026-05-05 21:41 | 41.01076 | 1.33385 | 25703 ft | 348 kts | 252° |
| 2026-05-05 21:41 | 41.00353 | 1.30322 | 26148 ft | 351 kts | 252° |
| 2026-05-05 21:41 | 40.99622 | 1.27228 | 26598 ft | 353 kts | 252° |
| 2026-05-05 21:42 | 40.98886 | 1.24115 | 27032 ft | 356 kts | 252° |
| 2026-05-05 21:42 | 40.98145 | 1.20984 | 27467 ft | 358 kts | 252° |
| 2026-05-05 21:42 | 40.97404 | 1.17859 | 27899 ft | 361 kts | 252° |
| 2026-05-05 21:42 | 40.96650 | 1.14681 | 28313 ft | 363 kts | 252° |
| 2026-05-05 21:43 | 40.95891 | 1.11488 | 28712 ft | 366 kts | 252° |
| 2026-05-05 21:43 | 40.95123 | 1.08258 | 29126 ft | 369 kts | 252° |
| 2026-05-05 21:43 | 40.94349 | 1.05010 | 29530 ft | 371 kts | 252° |
| 2026-05-05 21:43 | 40.93572 | 1.01751 | 29929 ft | 374 kts | 252° |
| 2026-05-05 21:44 | 40.92783 | 0.98450 | 30272 ft | 376 kts | 252° |
| 2026-05-05 21:44 | 40.91992 | 0.95140 | 30576 ft | 379 kts | 252° |
| 2026-05-05 21:44 | 40.91194 | 0.91810 | 30876 ft | 382 kts | 252° |
| 2026-05-05 21:44 | 40.90395 | 0.88482 | 30922 ft | 376 kts | 252° |
| 2026-05-05 21:45 | 40.88823 | 0.81945 | 30957 ft | 372 kts | 252° |
| 2026-05-05 21:45 | 40.87343 | 0.75401 | 30975 ft | 372 kts | 257° |
| 2026-05-05 21:46 | 40.86843 | 0.68583 | 30963 ft | 375 kts | 266° |
| 2026-05-05 21:46 | 40.86874 | 0.61686 | 30964 ft | 376 kts | 268° |
| 2026-05-05 21:47 | 40.86979 | 0.54820 | 30972 ft | 375 kts | 268° |
| 2026-05-05 21:47 | 40.87059 | 0.47925 | 30969 ft | 375 kts | 268° |
| 2026-05-05 21:48 | 40.87106 | 0.41030 | 30980 ft | 376 kts | 267° |
| 2026-05-05 21:48 | 40.87138 | 0.34131 | 30982 ft | 376 kts | 268° |
| 2026-05-05 21:49 | 40.87168 | 0.27227 | 30990 ft | 376 kts | 268° |
| 2026-05-05 21:49 | 40.87196 | 0.20320 | 30992 ft | 376 kts | 268° |
| 2026-05-05 21:50 | 40.87216 | 0.13409 | 30992 ft | 376 kts | 268° |
| 2026-05-05 21:50 | 40.87233 | 0.06510 | 30997 ft | 376 kts | 268° |
| 2026-05-05 21:51 | 40.87247 | -0.00401 | 31005 ft | 376 kts | 268° |
| 2026-05-05 21:51 | 40.87257 | -0.07309 | 30999 ft | 375 kts | 268° |
| 2026-05-05 21:52 | 40.87264 | -0.17614 | 31000 ft | 375 kts | 268° |
| 2026-05-05 21:53 | 40.87264 | -0.24511 | 30998 ft | 375 kts | 268° |
| 2026-05-05 21:53 | 40.87260 | -0.31417 | 31002 ft | 375 kts | 268° |
| 2026-05-05 21:54 | 40.87251 | -0.38319 | 31001 ft | 376 kts | 268° |
| 2026-05-05 21:54 | 40.87239 | -0.45222 | 31002 ft | 376 kts | 268° |
| 2026-05-05 21:55 | 40.87223 | -0.52124 | 31008 ft | 375 kts | 268° |
| 2026-05-05 21:55 | 40.87202 | -0.59026 | 31005 ft | 375 kts | 267° |
| 2026-05-05 21:56 | 40.87177 | -0.65924 | 31008 ft | 375 kts | 267° |
| 2026-05-05 21:56 | 40.87147 | -0.72826 | 31009 ft | 376 kts | 268° |
| 2026-05-05 21:57 | 40.86729 | -0.79685 | 31020 ft | 374 kts | 258° |
| 2026-05-05 21:57 | 40.85236 | -0.86237 | 31019 ft | 375 kts | 252° |
| 2026-05-05 21:58 | 40.83458 | -0.92718 | 31021 ft | 375 kts | 250° |
| 2026-05-05 21:58 | 40.81630 | -0.99184 | 31022 ft | 376 kts | 250° |
| 2026-05-05 21:59 | 40.79808 | -1.05667 | 31017 ft | 376 kts | 251° |
| 2026-05-05 21:59 | 40.78013 | -1.12091 | 31023 ft | 375 kts | 251° |
| 2026-05-05 22:00 | 40.76203 | -1.18567 | 31024 ft | 376 kts | 251° |
| 2026-05-05 22:00 | 40.74390 | -1.25045 | 31031 ft | 376 kts | 251° |
| 2026-05-05 22:01 | 40.72570 | -1.31530 | 30499 ft | 375 kts | 251° |
| 2026-05-05 22:01 | 40.71668 | -1.34739 | 30087 ft | 369 kts | 251° |
| 2026-05-05 22:01 | 40.70780 | -1.37891 | 29660 ft | 363 kts | 251° |
| 2026-05-05 22:01 | 40.69923 | -1.40934 | 29267 ft | 355 kts | 251° |
| 2026-05-05 22:02 | 40.69069 | -1.43960 | 28909 ft | 348 kts | 251° |
| 2026-05-05 22:02 | 40.68228 | -1.46939 | 28534 ft | 346 kts | 251° |
| 2026-05-05 22:02 | 40.67389 | -1.49912 | 28160 ft | 346 kts | 251° |
| 2026-05-05 22:02 | 40.66550 | -1.52878 | 27788 ft | 345 kts | 251° |
| 2026-05-05 22:03 | 40.65712 | -1.55835 | 27428 ft | 344 kts | 252° |
| 2026-05-05 22:03 | 40.64875 | -1.58787 | 27060 ft | 344 kts | 252° |
| 2026-05-05 22:03 | 40.64039 | -1.61734 | 26688 ft | 342 kts | 252° |
| 2026-05-05 22:03 | 40.63208 | -1.64656 | 26301 ft | 340 kts | 252° |
| 2026-05-05 22:04 | 40.62381 | -1.67561 | 25925 ft | 338 kts | 252° |
| 2026-05-05 22:04 | 40.61559 | -1.70448 | 25564 ft | 336 kts | 252° |
| 2026-05-05 22:04 | 40.60740 | -1.73321 | 25190 ft | 334 kts | 252° |
| 2026-05-05 22:04 | 40.59924 | -1.76179 | 24830 ft | 333 kts | 252° |
| 2026-05-05 22:05 | 40.59113 | -1.79015 | 24472 ft | 331 kts | 252° |
| 2026-05-05 22:05 | 40.58301 | -1.81853 | 24091 ft | 329 kts | 252° |
| 2026-05-05 22:05 | 40.57497 | -1.84657 | 23734 ft | 327 kts | 252° |
| 2026-05-05 22:05 | 40.56696 | -1.87451 | 23321 ft | 326 kts | 252° |
| 2026-05-05 22:06 | 40.55897 | -1.90235 | 22967 ft | 325 kts | 252° |
| 2026-05-05 22:06 | 40.55098 | -1.93017 | 22600 ft | 325 kts | 252° |
| 2026-05-05 22:06 | 40.54309 | -1.95765 | 22251 ft | 326 kts | 252° |
| 2026-05-05 22:06 | 40.53507 | -1.98549 | 21890 ft | 326 kts | 252° |
| 2026-05-05 22:07 | 40.52705 | -2.01330 | 21520 ft | 325 kts | 252° |
| 2026-05-05 22:07 | 40.51904 | -2.04107 | 21158 ft | 325 kts | 251° |
| 2026-05-05 22:07 | 40.50986 | -2.06841 | 20817 ft | 332 kts | 245° |
| 2026-05-05 22:07 | 40.49808 | -2.09545 | 20484 ft | 347 kts | 242° |
| 2026-05-05 22:08 | 40.48538 | -2.12272 | 20118 ft | 351 kts | 241° |
| 2026-05-05 22:08 | 40.47253 | -2.15001 | 19746 ft | 351 kts | 241° |
| 2026-05-05 22:08 | 40.45972 | -2.17724 | 19388 ft | 350 kts | 241° |
| 2026-05-05 22:08 | 40.44695 | -2.20442 | 19023 ft | 349 kts | 241° |
| 2026-05-05 22:09 | 40.43422 | -2.23155 | 18665 ft | 348 kts | 241° |
| 2026-05-05 22:09 | 40.42153 | -2.25859 | 18302 ft | 348 kts | 241° |
| 2026-05-05 22:09 | 40.40885 | -2.28561 | 17909 ft | 348 kts | 240° |
| 2026-05-05 22:09 | 40.39618 | -2.31258 | 17536 ft | 347 kts | 241° |
| 2026-05-05 22:10 | 40.38351 | -2.33953 | 17184 ft | 347 kts | 241° |
| 2026-05-05 22:10 | 40.37087 | -2.36639 | 16818 ft | 345 kts | 240° |
| 2026-05-05 22:10 | 40.35842 | -2.39285 | 16477 ft | 344 kts | 240° |
| 2026-05-05 22:10 | 40.34586 | -2.41950 | 16104 ft | 343 kts | 240° |
| 2026-05-05 22:11 | 40.33334 | -2.44606 | 15764 ft | 342 kts | 240° |
| 2026-05-05 22:11 | 40.32085 | -2.47251 | 15410 ft | 341 kts | 240° |
| 2026-05-05 22:11 | 40.30840 | -2.49887 | 15042 ft | 340 kts | 240° |
| 2026-05-05 22:11 | 40.29597 | -2.52516 | 14700 ft | 339 kts | 240° |
| 2026-05-05 22:12 | 40.28358 | -2.55135 | 14360 ft | 338 kts | 240° |
| 2026-05-05 22:12 | 40.27138 | -2.57754 | 14004 ft | 336 kts | 242° |
| 2026-05-05 22:12 | 40.26264 | -2.60565 | 13677 ft | 333 kts | 258° |
| 2026-05-05 22:12 | 40.26020 | -2.63528 | 13476 ft | 322 kts | 268° |
| 2026-05-05 22:13 | 40.25995 | -2.66396 | 13264 ft | 309 kts | 270° |
| 2026-05-05 22:13 | 40.26000 | -2.69150 | 13087 ft | 296 kts | 270° |
| 2026-05-05 22:13 | 40.26004 | -2.71803 | 12904 ft | 285 kts | 270° |
| 2026-05-05 22:13 | 40.26003 | -2.74351 | 12738 ft | 275 kts | 270° |
| 2026-05-05 22:14 | 40.26000 | -2.76805 | 12590 ft | 265 kts | 270° |
| 2026-05-05 22:14 | 40.25994 | -2.79153 | 12438 ft | 251 kts | 270° |
| 2026-05-05 22:14 | 40.25986 | -2.81409 | 12067 ft | 246 kts | 270° |
| 2026-05-05 22:14 | 40.25978 | -2.83631 | 11642 ft | 243 kts | 270° |
| 2026-05-05 22:15 | 40.25969 | -2.85845 | 11217 ft | 242 kts | 270° |
| 2026-05-05 22:15 | 40.25960 | -2.88017 | 10933 ft | 241 kts | 270° |
| 2026-05-05 22:15 | 40.25950 | -2.90181 | 10692 ft | 233 kts | 270° |
| 2026-05-05 22:15 | 40.25940 | -2.92267 | 10480 ft | 225 kts | 270° |
| 2026-05-05 22:16 | 40.25930 | -2.94281 | 10266 ft | 218 kts | 270° |
| 2026-05-05 22:16 | 40.25920 | -2.96295 | 10066 ft | 225 kts | 270° |
| 2026-05-05 22:16 | 40.25910 | -2.98355 | 9806 ft | 227 kts | 270° |
| 2026-05-05 22:16 | 40.25899 | -3.00419 | 9563 ft | 227 kts | 270° |
| 2026-05-05 22:17 | 40.25887 | -3.02487 | 9353 ft | 227 kts | 270° |
| 2026-05-05 22:17 | 40.25875 | -3.04544 | 9145 ft | 226 kts | 270° |
| 2026-05-05 22:17 | 40.25863 | -3.06607 | 8926 ft | 227 kts | 270° |
| 2026-05-05 22:17 | 40.25850 | -3.08672 | 8723 ft | 227 kts | 270° |
| 2026-05-05 22:18 | 40.25837 | -3.10738 | 8511 ft | 227 kts | 270° |
| 2026-05-05 22:18 | 40.25832 | -3.12800 | 8292 ft | 226 kts | 272° |
| 2026-05-05 22:18 | 40.25982 | -3.14823 | 8093 ft | 226 kts | 278° |
| 2026-05-05 22:18 | 40.26234 | -3.16850 | 7883 ft | 226 kts | 280° |
| 2026-05-05 22:19 | 40.26505 | -3.18872 | 7675 ft | 225 kts | 280° |
| 2026-05-05 22:19 | 40.26777 | -3.20892 | 7498 ft | 225 kts | 280° |
| 2026-05-05 22:19 | 40.26956 | -3.22232 | 7384 ft | 225 kts | 280° |
| 2026-05-05 22:19 | 40.27225 | -3.24255 | 7176 ft | 225 kts | 281° |
| 2026-05-05 22:20 | 40.27492 | -3.26276 | 6969 ft | 225 kts | 281° |
| 2026-05-05 22:20 | 40.27757 | -3.28285 | 6757 ft | 224 kts | 280° |
| 2026-05-05 22:20 | 40.28022 | -3.30298 | 6534 ft | 224 kts | 281° |
| 2026-05-05 22:20 | 40.28402 | -3.32274 | 6335 ft | 223 kts | 293° |
| 2026-05-05 22:21 | 40.29215 | -3.33994 | 6117 ft | 222 kts | 308° |
| 2026-05-05 22:21 | 40.30200 | -3.35561 | 5907 ft | 221 kts | 310° |
| 2026-05-05 22:21 | 40.31193 | -3.37055 | 5690 ft | 214 kts | 315° |
| 2026-05-05 22:21 | 40.32292 | -3.38292 | 5555 ft | 202 kts | 322° |
| 2026-05-05 22:22 | 40.33355 | -3.39370 | 5401 ft | 191 kts | 322° |
| 2026-05-05 22:22 | 40.34392 | -3.40432 | 5162 ft | 188 kts | 322° |
| 2026-05-05 22:22 | 40.35417 | -3.41484 | 4905 ft | 187 kts | 323° |
| 2026-05-05 22:22 | 40.36441 | -3.42525 | 4638 ft | 186 kts | 323° |
| 2026-05-05 22:23 | 40.37464 | -3.43562 | 4377 ft | 185 kts | 323° |
| 2026-05-05 22:23 | 40.38459 | -3.44572 | 4129 ft | 175 kts | 323° |
| 2026-05-05 22:23 | 40.39378 | -3.45508 | 3878 ft | 160 kts | 323° |
| 2026-05-05 22:23 | 40.40251 | -3.46394 | 3695 ft | 158 kts | 323° |
| 2026-05-05 22:24 | 40.41119 | -3.47274 | 3491 ft | 157 kts | 323° |
| 2026-05-05 22:24 | 40.41940 | -3.48109 | 3286 ft | 142 kts | 324° |
| 2026-05-05 22:24 | 40.42689 | -3.48869 | 3036 ft | 130 kts | 322° |
| 2026-05-05 22:24 | 40.43383 | -3.49575 | 2889 ft | 127 kts | 322° |
| 2026-05-05 22:25 | 40.44082 | -3.50285 | 2733 ft | 127 kts | 322° |
| 2026-05-05 22:25 | 40.44780 | -3.50994 | 2562 ft | 127 kts | 322° |
| 2026-05-05 22:25 | 40.45480 | -3.51703 | 2401 ft | 127 kts | 322° |
| 2026-05-05 22:25 | 40.46175 | -3.52403 | 2227 ft | 125 kts | 321° |
| 2026-05-05 22:26 | 40.46864 | -3.53119 | 2133 ft | 126 kts | 321° |
| 2026-05-05 22:26 | 40.47559 | -3.53829 | 1997 ft | 127 kts | 323° |
| 2026-05-05 22:26 | 40.48193 | -3.54463 | 1988 ft | 99 kts | 322° |
| 2026-05-05 22:26 | 40.48659 | -3.54949 | 1989 ft | 62 kts | 313° |
| 2026-05-05 22:27 | 40.48821 | -3.55279 | 1988 ft | 29 kts | 291° |
| 2026-05-05 22:27 | 40.48923 | -3.55494 | 1987 ft | 26 kts | 318° |
| 2026-05-05 22:27 | 40.49027 | -3.55604 | 1989 ft | 19 kts | 321° |
| 2026-05-05 22:27 | 40.49137 | -3.55719 | 1988 ft | 21 kts | 321° |
| 2026-05-05 22:28 | 40.49255 | -3.55836 | 1988 ft | 22 kts | 323° |
| 2026-05-05 22:28 | 40.49298 | -3.55949 | 1987 ft | 10 kts | 266° |
| 2026-05-05 22:28 | 40.49293 | -3.56053 | 1984 ft | 12 kts | 266° |
| 2026-05-05 22:28 | 40.49275 | -3.56124 | 1989 ft | 6 kts | 219° |
| 2026-05-05 22:29 | 40.49195 | -3.56145 | 1985 ft | 17 kts | 178° |
| 2026-05-05 22:29 | 40.49073 | -3.56142 | 1987 ft | 18 kts | 180° |
| 2026-05-05 22:29 | 40.48940 | -3.56142 | 1985 ft | 20 kts | 180° |
| 2026-05-05 22:29 | 40.48805 | -3.56149 | 1985 ft | 17 kts | 199° |
| 2026-05-05 22:30 | 40.48771 | -3.56248 | 1987 ft | 12 kts | 266° |
| 2026-05-05 22:30 | 40.48768 | -3.56369 | 1987 ft | 14 kts | 269° |
| 2026-05-05 22:30 | 40.48767 | -3.56506 | 1988 ft | 16 kts | 269° |
| 2026-05-05 22:30 | 40.48766 | -3.56659 | 1988 ft | 18 kts | 269° |
| 2026-05-05 22:31 | 40.48766 | -3.56825 | 1988 ft | 19 kts | 270° |
| 2026-05-05 22:31 | 40.48765 | -3.57006 | 1988 ft | 21 kts | 269° |
| 2026-05-05 22:31 | 40.48764 | -3.57200 | 1987 ft | 22 kts | 270° |
| 2026-05-05 22:31 | 40.48764 | -3.57407 | 1987 ft | 23 kts | 270° |
| 2026-05-05 22:32 | 40.48765 | -3.57625 | 1988 ft | 24 kts | 270° |
| 2026-05-05 22:32 | 40.48761 | -3.57832 | 1984 ft | 17 kts | 267° |
| 2026-05-05 22:32 | 40.48734 | -3.57924 | 1987 ft | 7 kts | 208° |
| 2026-05-05 22:32 | 40.48634 | -3.57935 | 1984 ft | 21 kts | 174° |
| 2026-05-05 22:33 | 40.48498 | -3.57860 | 1988 ft | 22 kts | 149° |
| 2026-05-05 22:33 | 40.48364 | -3.57748 | 1989 ft | 23 kts | 142° |
| 2026-05-05 22:33 | 40.48234 | -3.57616 | 1985 ft | 23 kts | 142° |
| 2026-05-05 22:33 | 40.48104 | -3.57483 | 1989 ft | 24 kts | 142° |
| 2026-05-05 22:34 | 40.47967 | -3.57343 | 1987 ft | 26 kts | 142° |
| 2026-05-05 22:34 | 40.47823 | -3.57197 | 1988 ft | 27 kts | 142° |
| 2026-05-05 22:34 | 40.47674 | -3.57046 | 1986 ft | 25 kts | 144° |
| 2026-05-05 22:34 | 40.47553 | -3.56926 | 1987 ft | 22 kts | 142° |
| 2026-05-05 22:35 | 40.47427 | -3.56797 | 1989 ft | 24 kts | 142° |
| 2026-05-05 22:35 | 40.47296 | -3.56660 | 1988 ft | 25 kts | 141° |
| 2026-05-05 22:35 | 40.47156 | -3.56516 | 1988 ft | 26 kts | 148° |
| 2026-05-05 22:35 | 40.46996 | -3.56449 | 1987 ft | 20 kts | 178° |
| 2026-05-05 22:36 | 40.46850 | -3.56452 | 1986 ft | 22 kts | 185° |
| 2026-05-05 22:36 | 40.46695 | -3.56468 | 1986 ft | 23 kts | 183° |
| 2026-05-05 22:36 | 40.46532 | -3.56480 | 1987 ft | 24 kts | 183° |
| 2026-05-05 22:36 | 40.46358 | -3.56493 | 1984 ft | 26 kts | 183° |
| 2026-05-05 22:37 | 40.46176 | -3.56507 | 1987 ft | 27 kts | 183° |
| 2026-05-05 22:37 | 40.46028 | -3.56519 | 1985 ft | 21 kts | 183° |
| 2026-05-05 22:37 | 40.45889 | -3.56530 | 1987 ft | 10 kts | 183° |
| 2026-05-05 22:37 | 40.45829 | -3.56550 | 1987 ft | 9 kts | 218° |
| 2026-05-05 22:38 | 40.45804 | -3.56654 | 1988 ft | 14 kts | 266° |
| 2026-05-05 22:38 | 40.45799 | -3.56785 | 1989 ft | 15 kts | 259° |
| 2026-05-05 22:38 | 40.45735 | -3.56895 | 1988 ft | 16 kts | 225° |
| 2026-05-05 22:38 | 40.45683 | -3.56964 | 1988 ft | 8 kts | 225° |
| 2026-05-05 22:39 | 40.45648 | -3.57005 | 1988 ft | 1 kts | 202° |
| 2026-05-05 22:39 | 40.45621 | -3.56991 | 1988 ft | 7 kts | 143° |
| 2026-05-05 22:39 | 40.45585 | -3.56943 | 1989 ft | 5 kts | 134° |